createdAt,value
2018-03-04T00:00:20.096Z,1.50
2018-03-04T00:02:55.641Z,1.50
2018-03-04T00:05:32.359Z,1.50
2018-03-04T00:08:07.840Z,1.60
2018-03-04T00:10:46.003Z,1.50
2018-03-04T00:13:25.796Z,1.50
2018-03-04T00:16:03.931Z,1.50
2018-03-04T00:18:39.232Z,1.50
2018-03-04T00:21:18.060Z,1.50
2018-03-04T00:23:54.906Z,1.50
2018-03-04T00:26:30.723Z,1.50
2018-03-04T00:29:05.836Z,1.50
2018-03-04T00:31:42.520Z,1.40
2018-03-04T00:34:17.965Z,1.50
2018-03-04T00:36:55.556Z,1.60
2018-03-04T00:39:32.121Z,1.70
2018-03-04T00:42:08.050Z,1.60
2018-03-04T00:44:45.302Z,1.60
2018-03-04T00:47:22.883Z,1.60
2018-03-04T00:49:59.091Z,1.60
2018-03-04T00:52:41.776Z,1.60
2018-03-04T00:55:17.540Z,1.70
2018-03-04T00:57:53.313Z,1.60
2018-03-04T01:00:30.546Z,1.60
2018-03-04T01:03:05.904Z,1.60
2018-03-04T01:05:41.719Z,1.60
2018-03-04T01:08:20.809Z,1.60
2018-03-04T01:10:59.433Z,1.60
2018-03-04T01:13:35.794Z,1.50
2018-03-04T01:16:12.637Z,1.50
2018-03-04T01:18:51.120Z,1.50
2018-03-04T01:21:28.790Z,1.60
2018-03-04T01:24:07.121Z,1.60
2018-03-04T01:26:43.275Z,1.70
2018-03-04T01:29:19.642Z,1.70
2018-03-04T01:31:58.571Z,1.70
2018-03-04T01:34:35.965Z,1.60
2018-03-04T01:37:13.111Z,1.60
2018-03-04T01:39:48.425Z,1.60
2018-03-04T01:42:24.643Z,1.60
2018-03-04T01:45:01.536Z,1.60
2018-03-04T01:47:38.252Z,1.70
2018-03-04T01:50:12.998Z,1.70
2018-03-04T01:52:49.841Z,1.60
2018-03-04T01:55:26.521Z,1.60
2018-03-04T01:58:01.790Z,1.70
2018-03-04T02:00:39.242Z,1.70
2018-03-04T02:03:15.356Z,1.70
2018-03-04T02:05:51.006Z,1.70
2018-03-04T02:08:31.353Z,1.70
2018-03-04T02:11:07.264Z,1.70
2018-03-04T02:13:42.753Z,1.70
2018-03-04T02:16:19.889Z,1.80
2018-03-04T02:18:58.030Z,1.80
2018-03-04T02:21:33.382Z,1.70
2018-03-04T02:24:09.466Z,1.70
2018-03-04T02:26:46.094Z,1.80
2018-03-04T02:29:23.688Z,1.80
2018-03-04T02:31:58.981Z,1.70
2018-03-04T02:34:38.228Z,1.80
2018-03-04T02:37:13.492Z,1.80
2018-03-04T02:39:50.270Z,1.80
2018-03-04T02:42:32.543Z,1.80
2018-03-04T02:45:09.821Z,1.80
2018-03-04T02:47:46.564Z,1.70
2018-03-04T02:50:23.685Z,1.70
2018-03-04T02:53:00.711Z,1.80
2018-03-04T02:55:37.561Z,1.90
2018-03-04T02:58:15.187Z,1.90
2018-03-04T03:00:52.776Z,1.80
2018-03-04T03:03:30.681Z,1.80
2018-03-04T03:06:07.123Z,1.80
2018-03-04T03:08:43.750Z,1.80
2018-03-04T03:11:21.229Z,1.70
2018-03-04T03:14:00.437Z,1.70
2018-03-04T03:16:37.266Z,1.70
2018-03-04T03:19:15.790Z,1.70
2018-03-04T03:21:51.595Z,1.70
2018-03-04T03:24:26.686Z,1.70
2018-03-04T03:27:04.147Z,1.70
2018-03-04T03:29:42.236Z,1.70
2018-03-04T03:32:19.470Z,1.70
2018-03-04T03:35:01.964Z,1.70
2018-03-04T03:37:39.137Z,1.70
2018-03-04T03:40:22.014Z,1.80
2018-03-04T03:42:59.006Z,1.80
2018-03-04T03:45:34.648Z,1.80
2018-03-04T03:48:09.616Z,1.80
2018-03-04T03:50:47.423Z,1.80
2018-03-04T03:53:24.619Z,1.80
2018-03-04T03:56:01.489Z,1.80
2018-03-04T03:58:36.885Z,1.80
2018-03-04T04:01:13.466Z,1.80
2018-03-04T04:03:49.240Z,1.80
2018-03-04T04:06:26.156Z,1.90
2018-03-04T04:09:01.853Z,1.90
2018-03-04T04:11:40.575Z,1.80
2018-03-04T04:14:18.348Z,1.80
2018-03-04T04:17:00.819Z,1.80
2018-03-04T04:19:35.889Z,1.80
2018-03-04T04:22:12.457Z,1.90
2018-03-04T04:24:47.786Z,1.80
2018-03-04T04:27:24.526Z,1.90
2018-03-04T04:30:06.816Z,1.90
2018-03-04T04:32:41.976Z,2.00
2018-03-04T04:35:18.312Z,2.00
2018-03-04T04:37:59.383Z,2.00
2018-03-04T04:40:35.042Z,2.00
2018-03-04T04:43:10.653Z,2.00
2018-03-04T04:45:46.123Z,1.90
2018-03-04T04:48:21.776Z,2.00
2018-03-04T04:50:59.072Z,2.00
2018-03-04T04:53:36.794Z,2.00
2018-03-04T04:56:13.595Z,2.00
2018-03-04T04:58:57.643Z,2.00
2018-03-04T05:01:34.500Z,2.00
2018-03-04T05:04:10.492Z,2.10
2018-03-04T05:06:45.703Z,2.10
2018-03-04T05:09:22.401Z,2.00
2018-03-04T05:11:59.104Z,2.00
2018-03-04T05:14:35.522Z,2.00
2018-03-04T05:17:12.549Z,2.00
2018-03-04T05:19:50.657Z,1.90
2018-03-04T05:22:33.236Z,1.90
2018-03-04T05:25:11.703Z,1.90
2018-03-04T05:27:48.087Z,1.90
2018-03-04T05:30:25.016Z,1.90
2018-03-04T05:33:00.993Z,1.90
2018-03-04T05:35:44.174Z,1.90
2018-03-04T05:38:19.972Z,1.90
2018-03-04T05:40:57.060Z,2.00
2018-03-04T05:43:34.698Z,1.90
2018-03-04T05:46:11.266Z,1.90
2018-03-04T05:48:48.162Z,1.90
2018-03-04T05:51:21.985Z,1.80
2018-03-04T05:53:59.056Z,1.80
2018-03-04T05:56:34.414Z,1.80
2018-03-04T05:59:11.551Z,1.80
2018-03-04T06:01:47.520Z,1.80
2018-03-04T06:04:24.219Z,1.80
2018-03-04T06:07:05.878Z,1.80
2018-03-04T06:09:44.251Z,1.80
2018-03-04T06:12:20.720Z,1.70
2018-03-04T06:14:59.540Z,1.70
2018-03-04T06:17:36.612Z,1.70
2018-03-04T06:20:18.177Z,1.70
2018-03-04T06:22:54.879Z,1.70
2018-03-04T06:25:30.944Z,1.70
2018-03-04T06:28:08.889Z,1.80
2018-03-04T06:30:45.435Z,1.70
2018-03-04T06:33:22.181Z,1.80
2018-03-04T06:35:58.923Z,1.80
2018-03-04T06:38:41.297Z,1.80
2018-03-04T06:41:16.979Z,1.80
2018-03-04T06:43:53.641Z,1.90
2018-03-04T06:46:30.679Z,2.00
2018-03-04T06:49:07.611Z,2.00
2018-03-04T06:51:49.852Z,2.00
2018-03-04T06:54:27.309Z,2.00
2018-03-04T06:57:03.097Z,2.00
2018-03-04T06:59:40.463Z,2.00
2018-03-04T07:02:16.445Z,2.00
2018-03-04T07:04:52.248Z,2.10
2018-03-04T07:07:30.706Z,2.10
2018-03-04T07:10:07.911Z,2.00
2018-03-04T07:12:45.989Z,2.00
2018-03-04T07:15:21.987Z,2.10
2018-03-04T07:18:00.980Z,2.10
2018-03-04T07:20:37.363Z,2.20
2018-03-04T07:23:17.207Z,2.20
2018-03-04T07:25:54.194Z,2.30
2018-03-04T07:28:30.716Z,2.40
2018-03-04T07:31:08.756Z,2.40
2018-03-04T07:33:45.831Z,2.70
2018-03-04T07:36:23.089Z,2.70
2018-03-04T07:38:59.835Z,2.80
2018-03-04T07:41:37.001Z,2.80
2018-03-04T07:44:15.424Z,2.90
2018-03-04T07:46:54.385Z,3.00
2018-03-04T07:49:30.508Z,3.30
2018-03-04T07:52:06.574Z,3.60
2018-03-04T07:54:45.067Z,3.80
2018-03-04T07:57:22.610Z,3.70
2018-03-04T08:00:02.370Z,3.60
2018-03-04T08:02:39.851Z,3.50
2018-03-04T08:05:19.246Z,3.50
2018-03-04T08:07:57.380Z,3.50
2018-03-04T08:10:34.570Z,3.40
2018-03-04T08:13:10.364Z,3.50
2018-03-04T08:15:47.691Z,3.50
2018-03-04T08:18:23.824Z,3.50
2018-03-04T08:21:02.966Z,3.40
2018-03-04T08:23:39.085Z,3.40
2018-03-04T08:26:25.818Z,3.50
2018-03-04T08:28:55.485Z,3.50
2018-03-04T08:31:32.266Z,3.70
2018-03-04T08:34:14.162Z,4.00
2018-03-04T08:36:50.455Z,4.50
2018-03-04T08:39:27.620Z,4.40
2018-03-04T08:42:09.831Z,4.40
2018-03-04T08:44:48.134Z,4.20
2018-03-04T08:47:27.031Z,4.10
2018-03-04T08:50:02.767Z,4.20
2018-03-04T08:52:38.149Z,4.00
2018-03-04T08:55:15.605Z,4.00
2018-03-04T08:57:52.902Z,4.00
2018-03-04T09:00:29.916Z,4.20
2018-03-04T09:03:05.228Z,4.50
2018-03-04T09:05:40.897Z,4.50
2018-03-04T09:08:17.850Z,4.60
2018-03-04T09:10:54.723Z,4.80
2018-03-04T09:13:30.783Z,4.60
2018-03-04T09:16:06.022Z,4.60
2018-03-04T09:18:43.126Z,4.70
2018-03-04T09:21:21.517Z,4.60
2018-03-04T09:23:58.797Z,4.40
2018-03-04T09:26:34.112Z,4.50
2018-03-04T09:29:11.233Z,4.50
2018-03-04T09:31:49.363Z,4.40
2018-03-04T09:34:25.808Z,4.50
2018-03-04T09:37:02.652Z,4.60
2018-03-04T09:39:39.474Z,4.80
2018-03-04T09:42:16.119Z,4.80
2018-03-04T09:44:51.706Z,4.90
2018-03-04T09:47:28.514Z,5.20
2018-03-04T09:50:06.713Z,7.80
2018-03-04T09:52:44.693Z,8.90
2018-03-04T09:55:21.920Z,8.90
2018-03-04T09:57:58.944Z,7.40
2018-03-04T10:00:35.350Z,6.40
2018-03-04T10:03:12.726Z,5.60
2018-03-04T10:05:53.084Z,5.80
2018-03-04T10:08:31.422Z,5.80
2018-03-04T10:11:07.779Z,6.00
2018-03-04T10:13:44.009Z,8.90
2018-03-04T10:16:20.455Z,8.90
2018-03-04T10:19:03.051Z,9.10
2018-03-04T10:21:38.971Z,8.00
2018-03-04T10:24:16.337Z,6.80
2018-03-04T10:26:58.213Z,6.90
2018-03-04T10:29:34.614Z,8.00
2018-03-04T10:32:14.838Z,7.90
2018-03-04T10:34:54.293Z,7.90
2018-03-04T10:37:30.345Z,7.60
2018-03-04T10:40:07.637Z,8.70
2018-03-04T10:42:45.595Z,9.30
2018-03-04T10:45:21.186Z,9.40
2018-03-04T10:47:56.718Z,8.70
2018-03-04T10:50:35.142Z,9.60
2018-03-04T10:53:11.794Z,9.50
2018-03-04T10:55:53.797Z,7.70
2018-03-04T10:58:31.277Z,8.00
2018-03-04T11:01:10.448Z,9.20
2018-03-04T11:03:40.547Z,11.20
2018-03-04T11:06:18.963Z,12.80
2018-03-04T11:08:55.047Z,13.40
2018-03-04T11:11:31.770Z,13.40
2018-03-04T11:14:10.092Z,12.20
2018-03-04T11:16:45.585Z,12.20
2018-03-04T11:19:22.638Z,11.80
2018-03-04T11:21:59.247Z,11.90
2018-03-04T11:24:35.393Z,12.20
2018-03-04T11:27:14.871Z,13.50
2018-03-04T11:29:53.426Z,13.40
2018-03-04T11:32:30.192Z,13.50
2018-03-04T11:35:08.823Z,13.80
2018-03-04T11:40:12.649Z,11.10
2018-03-04T11:42:51.087Z,11.30
2018-03-04T11:45:28.330Z,10.50
2018-03-04T11:48:05.830Z,11.70
2018-03-04T11:50:42.639Z,11.80
2018-03-04T11:53:24.904Z,13.20
2018-03-04T11:56:02.454Z,13.10
2018-03-04T11:58:40.374Z,13.40
2018-03-04T12:01:17.768Z,11.20
2018-03-04T12:03:55.024Z,10.90
2018-03-04T12:06:31.283Z,11.50
2018-03-04T12:09:10.206Z,10.50
2018-03-04T12:11:46.680Z,10.50
2018-03-04T12:14:23.049Z,12.00
2018-03-04T12:17:01.809Z,11.60
2018-03-04T12:19:38.643Z,11.50
2018-03-04T12:22:09.886Z,11.40
2018-03-04T12:24:49.213Z,11.40
2018-03-04T12:27:29.083Z,13.50
2018-03-04T12:30:05.559Z,13.50
2018-03-04T12:32:42.586Z,13.50
2018-03-04T12:35:20.632Z,12.30
2018-03-04T12:37:56.217Z,11.40
2018-03-04T12:40:31.780Z,12.00
2018-03-04T12:43:09.573Z,12.00
2018-03-04T12:45:46.512Z,12.10
2018-03-04T12:48:23.469Z,12.30
2018-03-04T12:51:01.897Z,12.90
2018-03-04T12:53:39.207Z,13.50
2018-03-04T12:56:16.367Z,13.40
2018-03-04T12:58:55.165Z,13.60
2018-03-04T13:01:32.107Z,13.70
2018-03-04T13:04:09.657Z,12.30
2018-03-04T13:06:48.679Z,11.00
2018-03-04T13:09:28.047Z,11.00
2018-03-04T13:12:03.906Z,11.70
2018-03-04T13:14:38.782Z,12.10
2018-03-04T13:17:16.330Z,12.40
2018-03-04T13:19:51.617Z,11.70
2018-03-04T13:22:31.997Z,11.80
2018-03-04T13:25:09.620Z,12.40
2018-03-04T13:27:47.868Z,12.40
2018-03-04T13:30:23.839Z,11.60
2018-03-04T13:33:01.935Z,12.00
2018-03-04T13:35:40.007Z,12.20
2018-03-04T13:38:16.119Z,11.90
2018-03-04T13:40:53.042Z,10.80
2018-03-04T13:43:29.379Z,10.80
2018-03-04T13:46:14.027Z,10.90
2018-03-04T13:48:52.492Z,10.70
2018-03-04T13:51:34.587Z,10.50
2018-03-04T13:54:14.541Z,10.60
2018-03-04T13:56:51.332Z,10.70
2018-03-04T13:59:33.952Z,10.80
2018-03-04T14:02:14.497Z,11.10
2018-03-04T14:04:50.596Z,10.90
2018-03-04T14:07:28.022Z,10.80
2018-03-04T14:10:07.907Z,10.80
2018-03-04T14:12:44.520Z,10.70
2018-03-04T14:15:22.463Z,10.50
2018-03-04T14:17:58.372Z,10.40
2018-03-04T14:20:36.143Z,10.50
2018-03-04T14:23:16.371Z,10.40
2018-03-04T14:25:53.244Z,10.60
2018-03-04T14:28:31.261Z,10.50
2018-03-04T14:31:10.717Z,10.30
2018-03-04T14:33:48.196Z,10.30
2018-03-04T14:36:26.894Z,10.50
2018-03-04T14:39:05.640Z,10.40
2018-03-04T14:41:44.288Z,10.50
2018-03-04T14:44:20.881Z,10.40
2018-03-04T14:46:59.672Z,10.00
2018-03-04T14:49:37.970Z,10.20
2018-03-04T14:52:13.209Z,10.20
2018-03-04T14:54:48.642Z,10.30
2018-03-04T14:57:26.938Z,10.00
2018-03-04T15:00:02.659Z,10.10
2018-03-04T15:02:38.241Z,9.90
2018-03-04T15:05:14.310Z,9.80
2018-03-04T15:07:52.887Z,9.70
2018-03-04T15:10:30.165Z,9.70
2018-03-04T15:13:07.068Z,9.80
2018-03-04T15:15:44.080Z,9.80
2018-03-04T15:18:21.152Z,9.90
2018-03-04T15:20:59.174Z,10.00
2018-03-04T15:23:35.888Z,9.90
2018-03-04T15:26:12.515Z,9.90
2018-03-04T15:28:49.259Z,10.00
2018-03-04T15:31:24.324Z,9.90
2018-03-04T15:34:00.124Z,10.00
2018-03-04T15:36:36.847Z,10.00
2018-03-04T15:39:15.879Z,9.80
2018-03-04T15:41:55.183Z,9.70
2018-03-04T15:44:31.267Z,9.70
2018-03-04T15:47:13.611Z,9.60
2018-03-04T15:49:52.739Z,9.70
2018-03-04T15:52:30.728Z,9.70
2018-03-04T15:55:07.083Z,9.70
2018-03-04T15:57:43.497Z,9.70
2018-03-04T16:00:22.546Z,9.70
2018-03-04T16:02:59.372Z,9.70
2018-03-04T16:05:36.018Z,9.70
2018-03-04T16:08:11.918Z,9.60
2018-03-04T16:10:49.653Z,9.60
2018-03-04T16:13:29.869Z,9.60
2018-03-04T16:16:06.882Z,9.50
2018-03-04T16:18:48.958Z,9.50
2018-03-04T16:21:26.682Z,9.50
2018-03-04T16:24:03.729Z,9.50
2018-03-04T16:26:38.871Z,9.40
2018-03-04T16:29:18.367Z,9.40
2018-03-04T16:31:55.701Z,9.40
2018-03-04T16:34:32.655Z,9.30
2018-03-04T16:37:15.889Z,9.30
2018-03-04T16:39:55.661Z,9.30
2018-03-04T16:42:33.189Z,9.30
2018-03-04T16:45:11.799Z,9.30
2018-03-04T16:47:48.546Z,9.30
2018-03-04T16:50:28.013Z,9.20
2018-03-04T16:53:04.501Z,9.30
2018-03-04T16:55:41.223Z,9.20
2018-03-04T16:58:17.144Z,9.20
2018-03-04T17:00:54.347Z,9.30
2018-03-04T17:03:34.328Z,9.30
2018-03-04T17:06:12.683Z,9.20
2018-03-04T17:08:48.479Z,9.30
2018-03-04T17:11:25.293Z,9.20
2018-03-04T17:14:00.849Z,9.20
2018-03-04T17:16:39.098Z,9.20
2018-03-04T17:19:17.766Z,9.20
2018-03-04T17:21:53.311Z,9.00
2018-03-04T17:24:28.721Z,8.70
2018-03-04T17:27:07.224Z,8.50
2018-03-04T17:29:44.576Z,8.40
2018-03-04T17:32:21.284Z,8.30
2018-03-04T17:34:57.166Z,8.30
2018-03-04T17:37:32.900Z,8.20
2018-03-04T17:40:09.243Z,8.20
2018-03-04T17:42:46.123Z,8.10
2018-03-04T17:45:22.143Z,8.20
2018-03-04T17:47:58.183Z,8.20
2018-03-04T17:50:35.669Z,8.20
2018-03-04T17:53:14.206Z,8.20
2018-03-04T17:55:50.293Z,8.20
2018-03-04T17:58:27.763Z,8.20
2018-03-04T18:01:04.909Z,8.20
2018-03-04T18:03:41.117Z,8.10
2018-03-04T18:06:20.259Z,8.00
2018-03-04T18:08:57.236Z,8.00
2018-03-04T18:11:35.300Z,8.00
2018-03-04T18:14:12.596Z,8.00
2018-03-04T18:16:48.380Z,8.00
2018-03-04T18:19:27.545Z,8.10
2018-03-04T18:22:05.909Z,8.00
2018-03-04T18:24:42.531Z,8.00
2018-03-04T18:27:19.400Z,8.00
2018-03-04T18:29:57.589Z,7.90
2018-03-04T18:32:34.554Z,7.80
2018-03-04T18:35:11.583Z,7.80
2018-03-04T18:37:49.749Z,7.80
2018-03-04T18:40:28.336Z,7.80
2018-03-04T18:43:05.549Z,7.80
2018-03-04T18:45:43.160Z,7.80
2018-03-04T18:48:23.157Z,7.70
2018-03-04T18:51:00.397Z,7.70
2018-03-04T18:53:38.042Z,7.60
2018-03-04T18:56:15.250Z,7.60
2018-03-04T18:58:55.740Z,7.60
2018-03-04T19:01:33.711Z,7.60
2018-03-04T19:04:10.381Z,7.60
2018-03-04T19:06:50.554Z,7.50
2018-03-04T19:09:28.145Z,7.40
2018-03-04T19:12:05.999Z,7.30
2018-03-04T19:14:41.239Z,7.30
2018-03-04T19:17:18.269Z,7.20
2018-03-04T19:19:55.563Z,7.20
2018-03-04T19:22:34.407Z,7.10
2018-03-04T19:25:12.156Z,7.10
2018-03-04T19:27:49.274Z,7.10
2018-03-04T19:30:25.305Z,7.10
2018-03-04T19:33:02.085Z,7.10
2018-03-04T19:35:39.052Z,7.20
2018-03-04T19:38:16.885Z,7.20
2018-03-04T19:40:54.711Z,7.20
2018-03-04T19:43:32.186Z,7.20
2018-03-04T19:46:13.927Z,7.20
2018-03-04T19:48:50.698Z,7.20
2018-03-04T19:51:26.951Z,7.30
2018-03-04T19:54:03.886Z,7.30
2018-03-04T19:56:41.680Z,7.30
2018-03-04T19:59:23.426Z,7.20
2018-03-04T20:01:59.878Z,7.30
2018-03-04T20:04:36.925Z,7.30
2018-03-04T20:07:13.905Z,7.30
2018-03-04T20:09:51.679Z,7.30
2018-03-04T20:12:30.433Z,7.30
2018-03-04T20:15:08.624Z,7.30
2018-03-04T20:17:49.140Z,7.30
2018-03-04T20:20:29.589Z,7.40
2018-03-04T20:23:06.808Z,7.40
2018-03-04T20:25:45.015Z,7.40
2018-03-04T20:28:21.227Z,7.40
2018-03-04T20:30:57.683Z,7.30
2018-03-04T20:33:33.476Z,7.10
2018-03-04T20:36:08.703Z,7.10
2018-03-04T20:38:44.390Z,7.10
2018-03-04T20:41:24.048Z,7.00
2018-03-04T20:43:59.482Z,7.00
2018-03-04T20:46:36.784Z,7.00
2018-03-04T20:49:12.331Z,7.00
2018-03-04T20:51:50.237Z,7.00
2018-03-04T20:54:28.387Z,7.00
2018-03-04T20:57:05.623Z,7.00
2018-03-04T20:59:44.163Z,7.00
2018-03-04T21:02:22.199Z,7.30
2018-03-04T21:05:09.619Z,7.30
2018-03-04T21:07:46.189Z,7.40
2018-03-04T21:10:23.498Z,7.50
2018-03-04T21:13:01.736Z,7.50
2018-03-04T21:15:38.224Z,7.50
2018-03-04T21:18:15.633Z,7.60
2018-03-04T21:20:53.329Z,7.60
2018-03-04T21:23:30.919Z,7.60
2018-03-04T21:26:08.340Z,7.60
2018-03-04T21:28:44.712Z,7.60
2018-03-04T21:31:23.978Z,7.60
2018-03-04T21:33:59.564Z,7.60
2018-03-04T21:36:35.901Z,7.50
2018-03-04T21:39:12.460Z,7.50
2018-03-04T21:41:49.546Z,7.50
2018-03-04T21:44:26.405Z,7.50
2018-03-04T21:47:03.721Z,7.60
2018-03-04T21:49:44.586Z,7.60
2018-03-04T21:52:21.578Z,7.60
2018-03-04T21:55:00.109Z,7.70
2018-03-04T21:57:32.542Z,7.60
2018-03-04T22:00:11.725Z,7.60
2018-03-04T22:02:51.128Z,7.60
2018-03-04T22:05:29.357Z,7.60
2018-03-04T22:08:05.757Z,7.60
2018-03-04T22:10:44.664Z,7.60
2018-03-04T22:13:26.662Z,7.70
2018-03-04T22:16:04.461Z,7.70
2018-03-04T22:18:43.274Z,7.70
2018-03-04T22:21:21.577Z,7.80
2018-03-04T22:23:57.833Z,7.80
2018-03-04T22:26:36.683Z,7.80
2018-03-04T22:29:16.816Z,7.80
2018-03-04T22:31:54.563Z,7.80
2018-03-04T22:34:32.596Z,7.80
2018-03-04T22:37:09.279Z,7.80
2018-03-04T22:39:45.367Z,7.80
2018-03-04T22:42:21.459Z,7.80
2018-03-04T22:44:57.990Z,7.80
2018-03-04T22:47:35.551Z,7.70
2018-03-04T22:50:17.205Z,7.70
2018-03-04T22:52:53.766Z,7.70
2018-03-04T22:55:30.573Z,7.70
2018-03-04T22:58:07.348Z,7.60
2018-03-04T23:00:47.065Z,7.60
2018-03-04T23:03:23.689Z,7.60
2018-03-04T23:06:00.660Z,7.60
2018-03-04T23:08:41.265Z,7.60
2018-03-04T23:11:19.967Z,7.60
2018-03-04T23:13:58.158Z,7.60
2018-03-04T23:16:37.604Z,7.60
2018-03-04T23:19:15.703Z,7.60
2018-03-04T23:21:53.790Z,7.50
2018-03-04T23:24:32.247Z,7.50
2018-03-04T23:27:09.838Z,7.50
2018-03-04T23:29:47.649Z,7.50
2018-03-04T23:32:25.207Z,7.40
2018-03-04T23:35:04.431Z,7.40
2018-03-04T23:37:41.893Z,7.40
2018-03-04T23:40:17.642Z,7.40
2018-03-04T23:42:53.683Z,7.40
2018-03-04T23:45:29.442Z,7.50
2018-03-04T23:48:05.099Z,7.50
2018-03-04T23:50:41.426Z,7.50
2018-03-04T23:53:17.900Z,7.50
2018-03-04T23:55:55.010Z,7.50
2018-03-04T23:58:36.790Z,7.60
